Kapetan Minas — SV9615 — position and weather

sailwx.info

Track history (hours):
 
Tides and Currents Weather Stations Pressure Air Temp Water Temp Dewpoint Dewpoint Depression Visibility Wind Speed Wind Dir Waves Ship Positions

Kapetan Minas

Last reported at 2017-Oct-17 16:01 UTC. Time now 2017-Oct-18 15:12 UTC.
Position N 40°39' E 024°10'.

Length 23 m; draft 2.2 m.

Type: Fishing. MMSI: 239058000.

Date/timePositionNaut miles runAvg speedWind from/ knotsBaromVisibWave heightAir tempDewpointWater temp
2017-Oct-17 16:01N 40°39' E 024°10'0 3.2
2017-Oct-17 16:01N 40°39' E 024°10'3 6.9
2017-Oct-17 15:30N 40°42' E 024°12'4 7.8
2017-Oct-17 15:01N 40°45' E 024°15'4 8.0
2017-Oct-17 14:30N 40°48' E 024°19'3 5.6
2017-Oct-17 14:00N 40°50' E 024°20'1 0.8
2017-Oct-17 13:17N 40°51' E 024°19'0 0.0
2017-Oct-17 12:57N 40°51' E 024°19'0 0.0
2017-Oct-17 12:27N 40°51' E 024°19'0 0.0
2017-Oct-17 11:59N 40°51' E 024°19'0 0.0
2017-Oct-17 11:27N 40°51' E 024°19'0 0.0
2017-Oct-17 10:57N 40°51' E 024°19'0 0.0
2017-Oct-17 10:27N 40°51' E 024°19'0 0.0
2017-Oct-17 09:59N 40°51' E 024°19'0 0.0
2017-Oct-17 09:29N 40°51' E 024°19'0 0.0
2017-Oct-17 08:57N 40°51' E 024°19'0 0.0
2017-Oct-17 08:27N 40°51' E 024°19'0 0.0
2017-Oct-17 07:57N 40°51' E 024°19'0 0.0
2017-Oct-17 07:29N 40°51' E 024°19'0 0.0
2017-Oct-17 06:57N 40°51' E 024°19'0 0.0
2017-Oct-17 06:27N 40°51' E 024°19'0 0.0
2017-Oct-17 05:57N 40°51' E 024°19'0 0.0
2017-Oct-17 05:27N 40°51' E 024°19'0 0.0
2017-Oct-17 04:56N 40°51' E 024°19'3 6.5
2017-Oct-17 04:30N 40°48' E 024°21'4 8.8
2017-Oct-17 04:00N 40°44' E 024°22'30 1.1
2017-Oct-16 01:37N 40°24' E 023°54'12 1.2
2017-Oct-15 15:21N 40°33' E 024°03'6 8.9
2017-Oct-15 14:39N 40°29' E 023°58'15 0.3
2017-Oct-13 15:27N 40°38' E 024°14'4 8.2
2017-Oct-13 15:00N 40°36' E 024°18'4 8.2
2017-Oct-13 14:30N 40°32' E 024°21'4 8.1
2017-Oct-13 14:00N 40°29' E 024°25'4 8.8
2017-Oct-13 13:30N 40°26' E 024°28'4 8.7
2017-Oct-13 13:00N 40°23' E 024°32'4 8.7
2017-Oct-13 12:30N 40°19' E 024°36'5 9.0
2017-Oct-13 12:00N 40°16' E 024°39'4 8.9
2017-Oct-13 11:30N 40°12' E 024°43'5 9.3
2017-Oct-13 11:00N 40°08' E 024°46'  
Track history (hours):
 
Tides and Currents Weather Stations Pressure Air Temp Water Temp Dewpoint Dewpoint Depression Visibility Wind Speed Wind Dir Waves Ship Positions

Kapetan Minas

Last reported at 2017-Oct-17 16:01 UTC. Time now 2017-Oct-18 15:12 UTC.
Position N 40°39' E 024°10'.

Length 23 m; draft 2.2 m.

Type: Fishing. MMSI: 239058000.

Date/timePositionNaut miles runAvg speedWind from/ knotsBaromVisibWave heightAir tempDewpointWater temp
2017-Oct-17 16:01N 40°39' E 024°10'0 3.2
2017-Oct-17 16:01N 40°39' E 024°10'3 6.9
2017-Oct-17 15:30N 40°42' E 024°12'4 7.8
2017-Oct-17 15:01N 40°45' E 024°15'4 8.0
2017-Oct-17 14:30N 40°48' E 024°19'3 5.6
2017-Oct-17 14:00N 40°50' E 024°20'1 0.8
2017-Oct-17 13:17N 40°51' E 024°19'0 0.0
2017-Oct-17 12:57N 40°51' E 024°19'0 0.0
2017-Oct-17 12:27N 40°51' E 024°19'0 0.0
2017-Oct-17 11:59N 40°51' E 024°19'0 0.0
2017-Oct-17 11:27N 40°51' E 024°19'0 0.0
2017-Oct-17 10:57N 40°51' E 024°19'0 0.0
2017-Oct-17 10:27N 40°51' E 024°19'0 0.0
2017-Oct-17 09:59N 40°51' E 024°19'0 0.0
2017-Oct-17 09:29N 40°51' E 024°19'0 0.0
2017-Oct-17 08:57N 40°51' E 024°19'0 0.0
2017-Oct-17 08:27N 40°51' E 024°19'0 0.0
2017-Oct-17 07:57N 40°51' E 024°19'0 0.0
2017-Oct-17 07:29N 40°51' E 024°19'0 0.0
2017-Oct-17 06:57N 40°51' E 024°19'0 0.0
2017-Oct-17 06:27N 40°51' E 024°19'0 0.0
2017-Oct-17 05:57N 40°51' E 024°19'0 0.0
2017-Oct-17 05:27N 40°51' E 024°19'0 0.0
2017-Oct-17 04:56N 40°51' E 024°19'3 6.5
2017-Oct-17 04:30N 40°48' E 024°21'4 8.8
2017-Oct-17 04:00N 40°44' E 024°22'30 1.1
2017-Oct-16 01:37N 40°24' E 023°54'12 1.2
2017-Oct-15 15:21N 40°33' E 024°03'6 8.9
2017-Oct-15 14:39N 40°29' E 023°58'15 0.3
2017-Oct-13 15:27N 40°38' E 024°14'4 8.2
2017-Oct-13 15:00N 40°36' E 024°18'4 8.2
2017-Oct-13 14:30N 40°32' E 024°21'4 8.1
2017-Oct-13 14:00N 40°29' E 024°25'4 8.8
2017-Oct-13 13:30N 40°26' E 024°28'4 8.7
2017-Oct-13 13:00N 40°23' E 024°32'4 8.7
2017-Oct-13 12:30N 40°19' E 024°36'5 9.0
2017-Oct-13 12:00N 40°16' E 024°39'4 8.9
2017-Oct-13 11:30N 40°12' E 024°43'5 9.3
2017-Oct-13 11:00N 40°08' E 024°46'  

Dump ship's entire track history